Time;durP1;ratioP1;P1;durP2;ratioP2;P2;SDS_P1;SDS_P2;PMS_P1;PMS_P2;Temp;Humidity;BMP_temperature;BMP_pressure;BME280_temperature;BME280_humidity;BME280_pressure;Samples;Min_cycle;Max_cycle;Signal;HPM_P1;HPM_P2
2021/03/10 00:00:57;;;;;;;16.83;13.65;;;;;;;;;;5078381;28;20028;-85
2021/03/10 00:03:23;;;;;;;18.48;14.60;;;;;;;;;;5078320;28;20122;-85
2021/03/10 00:05:49;;;;;;;17.17;13.00;;;;;;;;;;5096622;28;20070;-84
2021/03/10 00:08:15;;;;;;;17.55;14.88;;;;;;;;;;5096048;28;20027;-84
2021/03/10 00:10:41;;;;;;;16.90;14.68;;;;;;;;;;5096217;28;20081;-84
2021/03/10 00:13:08;;;;;;;16.30;13.18;;;;;;;;;;5077770;28;20063;-85
2021/03/10 00:15:34;;;;;;;17.30;14.32;;;;;;;;;;5078334;28;20077;-85
2021/03/10 00:18:00;;;;;;;18.00;14.45;;;;;;;;;;5078464;28;20104;-84
2021/03/10 00:20:27;;;;;;;19.27;14.35;;;;;;;;;;5095915;28;20032;-85
2021/03/10 00:22:53;;;;;;;16.67;14.45;;;;;;;;;;5095973;28;20031;-85
2021/03/10 00:25:19;;;;;;;16.42;12.23;;;;;;;;;;5078058;28;20028;-85
2021/03/10 00:27:45;;;;;;;15.48;13.27;;;;;;;;;;5077947;28;20035;-84
2021/03/10 00:30:11;;;;;;;15.40;13.65;;;;;;;;;;5095666;28;20347;-84
2021/03/10 00:32:38;;;;;;;19.20;13.45;;;;;;;;;;5078809;28;20169;-83
2021/03/10 00:35:05;;;;;;;22.95;15.02;;;;;;;;;;5078329;28;20316;-85
2021/03/10 00:37:31;;;;;;;14.13;12.63;;;;;;;;;;5078127;28;20050;-85
2021/03/10 00:39:57;;;;;;;17.13;14.65;;;;;;;;;;5077848;28;20024;-85
2021/03/10 00:42:23;;;;;;;18.95;14.13;;;;;;;;;;5078674;28;20032;-85
2021/03/10 00:44:49;;;;;;;15.43;13.77;;;;;;;;;;5078434;28;20032;-85
2021/03/10 00:47:16;;;;;;;16.90;14.07;;;;;;;;;;5077309;28;20024;-84
2021/03/10 00:49:42;;;;;;;18.33;13.05;;;;;;;;;;5094537;28;20028;-85
2021/03/10 00:52:09;;;;;;;18.17;14.63;;;;;;;;;;5077002;28;20355;-85
2021/03/10 00:54:35;;;;;;;18.55;14.80;;;;;;;;;;5094583;28;20028;-85
2021/03/10 00:57:01;;;;;;;16.67;14.10;;;;;;;;;;5076858;28;20036;-83
2021/03/10 00:59:27;;;;;;;17.35;14.60;;;;;;;;;;5095110;28;20024;-85
2021/03/10 01:01:53;;;;;;;18.15;15.13;;;;;;;;;;5077422;28;20031;-85
2021/03/10 01:04:20;;;;;;;17.73;14.52;;;;;;;;;;5096010;28;20039;-83
2021/03/10 01:06:49;;;;;;;17.77;14.57;;;;;;;;;;5095876;28;20028;-85
2021/03/10 01:09:15;;;;;;;16.35;14.10;;;;;;;;;;5077824;28;20039;-85
2021/03/10 01:11:41;;;;;;;17.58;14.77;;;;;;;;;;5078237;28;20020;-84
2021/03/10 01:14:07;;;;;;;16.45;14.13;;;;;;;;;;5098097;28;20100;-85
2021/03/10 01:16:34;;;;;;;17.27;14.85;;;;;;;;;;5081508;28;20430;-85
2021/03/10 01:19:00;;;;;;;15.80;13.40;;;;;;;;;;5081178;28;20156;-86
2021/03/10 01:21:26;;;;;;;18.83;14.98;;;;;;;;;;5099032;28;20050;-85
2021/03/10 01:23:52;;;;;;;19.25;14.77;;;;;;;;;;5081281;28;20119;-85
2021/03/10 01:26:19;;;;;;;20.10;14.30;;;;;;;;;;5081422;28;20031;-85
2021/03/10 01:28:45;;;;;;;18.33;15.45;;;;;;;;;;5081090;28;20036;-86
2021/03/10 01:31:11;;;;;;;17.63;14.35;;;;;;;;;;5098950;28;20024;-86
2021/03/10 01:33:37;;;;;;;18.77;14.07;;;;;;;;;;5081046;28;20071;-83
2021/03/10 01:36:04;;;;;;;17.23;15.38;;;;;;;;;;5080444;28;20055;-86
2021/03/10 01:38:30;;;;;;;18.13;15.27;;;;;;;;;;5098219;28;20024;-84
2021/03/10 01:40:56;;;;;;;19.83;14.73;;;;;;;;;;5099060;28;20024;-86
2021/03/10 01:43:22;;;;;;;19.48;15.00;;;;;;;;;;5099017;28;20024;-84
2021/03/10 01:45:48;;;;;;;18.35;15.38;;;;;;;;;;5081099;28;20023;-85
2021/03/10 01:48:17;;;;;;;21.35;15.60;;;;;;;;;;5080893;28;20138;-85
2021/03/10 01:50:43;;;;;;;19.03;15.70;;;;;;;;;;5081043;28;20024;-85
2021/03/10 01:53:09;;;;;;;19.92;15.43;;;;;;;;;;5081771;28;20062;-85
2021/03/10 01:55:35;;;;;;;17.45;14.90;;;;;;;;;;5080798;28;20165;-85
2021/03/10 01:58:01;;;;;;;23.25;16.40;;;;;;;;;;5080795;28;20044;-85
2021/03/10 02:00:29;;;;;;;19.58;15.20;;;;;;;;;;5098426;28;20028;-85
2021/03/10 02:02:55;;;;;;;19.88;15.27;;;;;;;;;;5080517;28;20024;-85
2021/03/10 02:05:22;;;;;;;18.30;14.88;;;;;;;;;;5080650;28;20027;-85
2021/03/10 02:08:13;;;;;;;18.58;16.38;;;;;;;;;;5080118;28;20035;-86
2021/03/10 02:10:50;;;;;;;19.02;15.93;;;;;;;;;;5080903;28;20028;-86
2021/03/10 02:13:35;;;;;;;23.38;17.35;;;;;;;;;;5079820;28;20423;-85
2021/03/10 02:16:07;;;;;;;19.08;15.95;;;;;;;;;;5098159;28;20119;-85
2021/03/10 02:18:36;;;;;;;18.50;15.52;;;;;;;;;;5098124;28;20077;-85
2021/03/10 02:21:03;;;;;;;21.38;16.95;;;;;;;;;;5098500;28;20080;-85
2021/03/10 02:23:32;;;;;;;18.40;15.90;;;;;;;;;;5096788;28;20043;-85
2021/03/10 02:26:04;;;;;;;22.52;17.40;;;;;;;;;;5097699;28;20031;-85
2021/03/10 02:28:31;;;;;;;19.58;15.57;;;;;;;;;;5091319;28;20134;-85
2021/03/10 02:30:58;;;;;;;21.55;17.58;;;;;;;;;;5098518;28;20027;-85
2021/03/10 02:33:29;;;;;;;21.75;17.10;;;;;;;;;;5097968;28;20034;-85
2021/03/10 02:35:57;;;;;;;22.40;15.80;;;;;;;;;;5097173;28;20030;-85
2021/03/10 02:38:25;;;;;;;19.67;15.40;;;;;;;;;;5098243;28;20043;-84
2021/03/10 02:40:52;;;;;;;20.75;16.13;;;;;;;;;;5097052;28;20028;-84
2021/03/10 02:43:19;;;;;;;23.80;18.15;;;;;;;;;;5098019;28;20063;-83
2021/03/10 02:45:45;;;;;;;20.85;16.45;;;;;;;;;;5096950;28;20027;-84
2021/03/10 02:48:13;;;;;;;26.10;18.88;;;;;;;;;;5097473;28;20093;-84
2021/03/10 02:50:40;;;;;;;18.15;15.18;;;;;;;;;;5097925;28;20024;-83
2021/03/10 02:53:11;;;;;;;19.98;15.00;;;;;;;;;;5097591;28;20120;-84
2021/03/10 02:55:38;;;;;;;20.15;15.43;;;;;;;;;;5085817;28;20023;-85
2021/03/10 02:58:05;;;;;;;19.60;15.85;;;;;;;;;;5096603;28;20130;-85
2021/03/10 03:03:38;;;;;;;20.20;15.63;;;;;;;;;;5100506;28;20034;-85
2021/03/10 03:06:04;;;;;;;;;;;;;;;;;;5099462;28;20036;-85
2021/03/10 03:08:30;;;;;;;19.73;15.48;;;;;;;;;;5099609;28;19958;-85
2021/03/10 03:10:57;;;;;;;17.85;15.00;;;;;;;;;;5097116;28;20031;-85
2021/03/10 03:13:23;;;;;;;16.85;13.77;;;;;;;;;;5096631;28;20039;-85
2021/03/10 03:15:51;;;;;;;18.52;15.43;;;;;;;;;;5096095;28;20055;-86
2021/03/10 03:18:17;;;;;;;23.65;14.73;;;;;;;;;;5096848;28;20024;-85
2021/03/10 03:20:43;;;;;;;18.42;15.02;;;;;;;;;;5097236;28;20032;-84
2021/03/10 03:23:10;;;;;;;19.33;15.10;;;;;;;;;;5096798;28;20024;-85
2021/03/10 03:25:39;;;;;;;19.75;13.75;;;;;;;;;;5096364;28;20024;-85
2021/03/10 03:28:06;;;;;;;20.05;15.52;;;;;;;;;;5096555;28;20335;-85
2021/03/10 03:30:34;;;;;;;18.98;14.77;;;;;;;;;;5097081;28;20036;-85
2021/03/10 03:33:01;;;;;;;17.45;15.38;;;;;;;;;;5083298;28;20051;-85
2021/03/10 03:35:28;;;;;;;18.40;14.93;;;;;;;;;;5094573;28;20023;-85
2021/03/10 03:37:54;;;;;;;17.13;14.43;;;;;;;;;;5062781;28;20047;-85
2021/03/10 03:40:23;;;;;;;16.73;13.77;;;;;;;;;;5069246;28;20032;-85
2021/03/10 03:42:50;;;;;;;19.98;15.55;;;;;;;;;;5078455;28;20038;-85
2021/03/10 03:45:16;;;;;;;19.65;14.93;;;;;;;;;;5063221;28;20123;-85
2021/03/10 03:47:42;;;;;;;16.27;13.90;;;;;;;;;;5076483;28;20032;-85
2021/03/10 03:50:10;;;;;;;20.00;14.68;;;;;;;;;;5093572;28;20028;-85
2021/03/10 03:52:39;;;;;;;16.60;13.98;;;;;;;;;;5079568;28;20028;-85
2021/03/10 03:55:06;;;;;;;16.30;12.40;;;;;;;;;;5079306;28;20331;-85
2021/03/10 03:57:32;;;;;;;18.50;13.85;;;;;;;;;;5079149;28;20047;-85
2021/03/10 03:59:58;;;;;;;18.80;14.50;;;;;;;;;;5078719;28;20052;-85
2021/03/10 04:02:24;;;;;;;18.73;14.95;;;;;;;;;;5079066;28;20347;-85
2021/03/10 04:04:50;;;;;;;17.52;13.52;;;;;;;;;;5096238;28;20063;-85
2021/03/10 04:07:16;;;;;;;18.77;14.30;;;;;;;;;;5075428;28;20032;-86
2021/03/10 04:09:42;;;;;;;21.38;15.25;;;;;;;;;;5066811;28;20028;-85
2021/03/10 04:12:09;;;;;;;19.00;14.70;;;;;;;;;;5096376;28;20054;-85
2021/03/10 04:14:35;;;;;;;15.32;12.95;;;;;;;;;;5087538;28;20054;-84
2021/03/10 04:17:01;;;;;;;16.45;12.98;;;;;;;;;;5077773;28;20431;-85
2021/03/10 04:19:27;;;;;;;17.00;13.75;;;;;;;;;;5079245;28;20130;-85
2021/03/10 04:21:53;;;;;;;18.90;13.85;;;;;;;;;;5078353;28;20407;-85
2021/03/10 04:24:20;;;;;;;17.58;12.68;;;;;;;;;;5095857;28;20024;-85
2021/03/10 04:26:46;;;;;;;17.83;13.45;;;;;;;;;;5078598;28;20034;-85
2021/03/10 04:29:12;;;;;;;19.75;14.38;;;;;;;;;;5095986;28;20024;-84
2021/03/10 04:31:39;;;;;;;15.77;12.75;;;;;;;;;;5072999;28;20066;-84
2021/03/10 04:34:05;;;;;;;17.42;13.20;;;;;;;;;;5061677;28;20031;-84
2021/03/10 04:36:31;;;;;;;19.40;14.73;;;;;;;;;;5076113;28;20144;-84
2021/03/10 04:38:57;;;;;;;16.80;13.65;;;;;;;;;;5058577;28;20024;-83
2021/03/10 04:41:23;;;;;;;18.77;13.63;;;;;;;;;;5078750;28;20036;-85
2021/03/10 04:43:49;;;;;;;18.77;13.77;;;;;;;;;;5096064;28;20335;-85
2021/03/10 04:46:15;;;;;;;17.85;14.15;;;;;;;;;;5078556;28;20073;-85
2021/03/10 04:48:41;;;;;;;20.48;13.93;;;;;;;;;;5080604;28;20124;-85
2021/03/10 04:51:07;;;;;;;16.35;13.18;;;;;;;;;;5082301;28;20036;-84
2021/03/10 04:53:34;;;;;;;17.65;13.35;;;;;;;;;;5100003;28;20027;-84
2021/03/10 04:56:00;;;;;;;17.25;13.95;;;;;;;;;;5093981;28;20050;-85
2021/03/10 04:58:26;;;;;;;17.15;13.20;;;;;;;;;;5088436;28;20028;-85
2021/03/10 05:00:52;;;;;;;19.08;13.18;;;;;;;;;;5100277;28;20024;-85
2021/03/10 05:03:18;;;;;;;20.83;14.38;;;;;;;;;;5094335;28;20315;-85
2021/03/10 05:05:44;;;;;;;17.58;14.07;;;;;;;;;;5097468;28;20035;-85
2021/03/10 05:08:11;;;;;;;20.10;13.35;;;;;;;;;;5073020;28;20032;-85
2021/03/10 05:10:37;;;;;;;19.13;14.13;;;;;;;;;;5074742;28;20034;-84
2021/03/10 05:13:03;;;;;;;16.02;12.77;;;;;;;;;;5074032;28;20044;-85
2021/03/10 05:15:29;;;;;;;17.02;12.98;;;;;;;;;;5065335;28;20030;-85
2021/03/10 05:17:55;;;;;;;16.92;13.63;;;;;;;;;;5069689;28;20131;-85
2021/03/10 05:20:21;;;;;;;15.80;13.15;;;;;;;;;;5087889;28;20031;-85
2021/03/10 05:22:47;;;;;;;19.27;14.45;;;;;;;;;;5090604;28;20035;-85
2021/03/10 05:25:14;;;;;;;17.70;13.40;;;;;;;;;;5061944;28;20051;-85
2021/03/10 05:27:40;;;;;;;16.33;13.25;;;;;;;;;;5092181;28;20308;-85
2021/03/10 05:30:08;;;;;;;15.95;12.43;;;;;;;;;;5073113;28;20027;-84
2021/03/10 05:32:36;;;;;;;18.20;13.35;;;;;;;;;;5095696;28;20124;-85
2021/03/10 05:35:03;;;;;;;16.23;12.82;;;;;;;;;;5093832;28;20028;-85
2021/03/10 05:37:29;;;;;;;21.80;14.07;;;;;;;;;;5098173;28;20032;-84
2021/03/10 05:39:56;;;;;;;16.48;13.10;;;;;;;;;;5084718;28;20020;-84
2021/03/10 05:42:22;;;;;;;18.15;13.30;;;;;;;;;;5102718;28;20036;-85
2021/03/10 05:44:52;;;;;;;22.63;13.77;;;;;;;;;;5082586;28;20077;-85
2021/03/10 05:47:19;;;;;;;17.38;13.93;;;;;;;;;;5088477;28;20032;-86
2021/03/10 05:49:46;;;;;;;19.02;13.73;;;;;;;;;;5077495;28;20028;-84
2021/03/10 05:52:12;;;;;;;19.73;14.10;;;;;;;;;;5075746;28;20032;-85
2021/03/10 05:54:38;;;;;;;17.27;13.07;;;;;;;;;;5094559;28;20031;-85
2021/03/10 05:57:05;;;;;;;19.15;14.23;;;;;;;;;;5072439;28;20482;-84
2021/03/10 05:59:31;;;;;;;16.98;12.57;;;;;;;;;;5071370;28;20510;-86
2021/03/10 06:01:57;;;;;;;18.77;13.40;;;;;;;;;;5089639;28;20028;-84
2021/03/10 06:04:24;;;;;;;17.77;13.73;;;;;;;;;;5079341;28;20033;-84
2021/03/10 06:06:51;;;;;;;16.38;12.35;;;;;;;;;;5078753;28;20035;-83
2021/03/10 06:09:21;;;;;;;17.98;12.88;;;;;;;;;;5083122;28;20307;-85
2021/03/10 06:11:54;;;;;;;18.40;14.00;;;;;;;;;;5080388;28;20188;-83
2021/03/10 06:14:20;;;;;;;17.70;13.20;;;;;;;;;;5097491;28;20150;-83
2021/03/10 06:16:46;;;;;;;18.00;13.75;;;;;;;;;;5102380;28;20081;-84
2021/03/10 06:19:12;;;;;;;19.73;13.90;;;;;;;;;;5097011;28;20024;-83
2021/03/10 06:21:48;;;;;;;21.60;12.65;;;;;;;;;;5086364;28;20032;-84
2021/03/10 06:24:14;;;;;;;19.33;12.90;;;;;;;;;;5077915;28;20028;-83
2021/03/10 06:26:40;;;;;;;18.02;13.65;;;;;;;;;;5078423;28;20033;-84
2021/03/10 06:29:16;;;;;;;16.10;12.43;;;;;;;;;;5085515;28;20025;-84
2021/03/10 06:31:42;;;;;;;16.83;12.25;;;;;;;;;;5100804;28;20091;-86
2021/03/10 06:34:08;;;;;;;17.60;13.18;;;;;;;;;;5100273;28;20032;-84
2021/03/10 06:36:39;;;;;;;16.60;12.35;;;;;;;;;;5091110;28;20040;-83
2021/03/10 06:39:06;;;;;;;21.17;14.00;;;;;;;;;;5091082;28;20031;-83
2021/03/10 06:41:37;;;;;;;16.95;13.07;;;;;;;;;;5101270;28;20066;-84
2021/03/10 06:44:14;;;;;;;15.43;12.38;;;;;;;;;;5081226;28;20051;-83
2021/03/10 06:46:49;;;;;;;18.35;12.70;;;;;;;;;;5080351;28;20032;-81
2021/03/10 06:49:16;;;;;;;16.33;12.27;;;;;;;;;;5097307;28;20027;-84
2021/03/10 06:51:50;;;;;;;16.42;12.15;;;;;;;;;;5096031;28;20052;-84
2021/03/10 06:54:16;;;;;;;16.27;12.77;;;;;;;;;;5093836;28;20024;-85
2021/03/10 06:56:43;;;;;;;16.38;12.93;;;;;;;;;;5079199;28;20040;-84
2021/03/10 06:59:09;;;;;;;16.23;12.80;;;;;;;;;;5095558;28;20020;-84
2021/03/10 07:01:45;;;;;;;17.35;12.43;;;;;;;;;;5079889;28;20072;-83
2021/03/10 07:04:12;;;;;;;17.60;13.10;;;;;;;;;;5077660;28;20039;-84
2021/03/10 07:06:39;;;;;;;17.15;13.32;;;;;;;;;;5094068;28;20036;-84
2021/03/10 07:09:10;;;;;;;17.33;13.35;;;;;;;;;;5082461;28;20036;-84
2021/03/10 07:11:36;;;;;;;14.55;11.63;;;;;;;;;;5084037;28;20019;-85
2021/03/10 07:14:03;;;;;;;17.95;12.80;;;;;;;;;;5092402;28;20032;-84
2021/03/10 07:16:36;;;;;;;17.75;13.55;;;;;;;;;;5084825;28;20092;-84
2021/03/10 07:19:04;;;;;;;16.52;13.13;;;;;;;;;;5078392;28;20039;-84
2021/03/10 07:21:56;;;;;;;19.27;13.60;;;;;;;;;;5107120;28;20024;-85
2021/03/10 07:24:24;;;;;;;18.15;13.80;;;;;;;;;;5054095;28;20435;-84
2021/03/10 07:26:51;;;;;;;16.23;12.23;;;;;;;;;;5072598;28;20051;-85
2021/03/10 07:29:18;;;;;;;16.25;12.18;;;;;;;;;;5102937;28;20015;-85
2021/03/10 07:31:44;;;;;;;16.58;13.55;;;;;;;;;;5088429;28;20047;-85
2021/03/10 07:34:11;;;;;;;16.38;13.02;;;;;;;;;;5093751;28;20036;-84
2021/03/10 07:36:43;;;;;;;16.08;12.23;;;;;;;;;;5089021;28;20355;-85
2021/03/10 07:39:22;;;;;;;15.90;12.40;;;;;;;;;;5083952;28;20078;-84
2021/03/10 07:41:49;;;;;;;16.05;12.43;;;;;;;;;;5094483;28;20039;-85
2021/03/10 07:44:25;;;;;;;14.27;11.70;;;;;;;;;;5080056;28;20114;-84
2021/03/10 07:47:04;;;;;;;16.98;13.82;;;;;;;;;;5082835;28;20040;-84
2021/03/10 07:49:30;;;;;;;18.23;12.68;;;;;;;;;;5092186;28;20035;-85
2021/03/10 07:52:06;;;;;;;15.90;12.90;;;;;;;;;;5075645;28;20032;-84
2021/03/10 07:54:33;;;;;;;21.45;14.90;;;;;;;;;;5062953;28;20066;-84
2021/03/10 07:57:06;;;;;;;19.05;13.35;;;;;;;;;;5085171;28;20038;-85
2021/03/10 07:59:32;;;;;;;19.77;14.00;;;;;;;;;;5094924;28;20024;-85
2021/03/10 08:02:05;;;;;;;18.70;14.05;;;;;;;;;;5082984;28;20155;-85
2021/03/10 08:04:32;;;;;;;15.98;12.70;;;;;;;;;;5059481;28;20051;-85
2021/03/10 08:07:01;;;;;;;17.48;13.10;;;;;;;;;;5086629;28;20032;-84
2021/03/10 08:09:27;;;;;;;;;;;;;;;;;;5071881;28;20062;-84
2021/03/10 08:12:03;;;;;;;18.20;14.30;;;;;;;;;;5083354;28;19912;-85
2021/03/10 08:14:40;;;;;;;17.20;13.48;;;;;;;;;;5097536;28;20029;-84
2021/03/10 08:17:08;;;;;;;19.98;13.30;;;;;;;;;;5084994;27;20027;-85
2021/03/10 08:19:36;;;;;;;16.98;13.70;;;;;;;;;;5119929;27;20032;-84
2021/03/10 08:22:03;;;;;;;15.55;13.02;;;;;;;;;;5101092;28;20035;-85
2021/03/10 08:24:30;;;;;;;17.08;13.68;;;;;;;;;;5104855;28;20012;-85
2021/03/10 08:26:57;;;;;;;15.43;12.68;;;;;;;;;;5108139;28;20051;-84
2021/03/10 08:29:24;;;;;;;16.38;13.27;;;;;;;;;;5117348;28;20016;-86
2021/03/10 08:31:50;;;;;;;17.17;12.95;;;;;;;;;;5120658;28;20031;-86
2021/03/10 08:34:17;;;;;;;18.90;14.80;;;;;;;;;;5103186;28;20032;-84
2021/03/10 08:36:43;;;;;;;17.42;13.70;;;;;;;;;;5099988;28;20080;-85
2021/03/10 08:39:11;;;;;;;17.52;14.13;;;;;;;;;;5100744;28;20024;-85
2021/03/10 08:41:44;;;;;;;17.23;13.80;;;;;;;;;;5111719;28;20037;-84
2021/03/10 08:44:11;;;;;;;17.15;12.52;;;;;;;;;;5092453;28;20028;-84
2021/03/10 08:46:41;;;;;;;16.75;14.10;;;;;;;;;;5099358;28;20027;-84
2021/03/10 08:49:18;;;;;;;16.23;13.50;;;;;;;;;;5098841;28;20027;-84
2021/03/10 08:51:44;;;;;;;17.63;14.60;;;;;;;;;;5100617;28;20036;-84
2021/03/10 08:54:10;;;;;;;16.90;13.07;;;;;;;;;;5084756;28;20051;-84
2021/03/10 08:56:46;;;;;;;17.67;14.25;;;;;;;;;;5086332;28;20063;-83
2021/03/10 08:59:12;;;;;;;18.63;14.32;;;;;;;;;;5100964;28;20020;-84
2021/03/10 09:01:45;;;;;;;17.38;13.88;;;;;;;;;;5102018;28;20016;-83
2021/03/10 09:04:11;;;;;;;15.27;12.65;;;;;;;;;;5081665;28;20097;-83
2021/03/10 09:06:37;;;;;;;20.90;13.93;;;;;;;;;;5078672;28;20028;-84
2021/03/10 09:09:04;;;;;;;17.50;12.30;;;;;;;;;;5096059;28;20027;-84
2021/03/10 09:11:31;;;;;;;17.55;14.73;;;;;;;;;;5094000;28;20039;-84
2021/03/10 09:13:57;;;;;;;16.25;12.65;;;;;;;;;;5079240;28;20024;-85
2021/03/10 09:16:23;;;;;;;17.83;13.52;;;;;;;;;;5085192;28;20036;-84
2021/03/10 09:18:59;;;;;;;17.55;13.60;;;;;;;;;;5079646;28;20024;-83
2021/03/10 09:21:38;;;;;;;16.75;12.63;;;;;;;;;;5105085;28;20028;-85
2021/03/10 09:24:04;;;;;;;17.90;13.55;;;;;;;;;;5097650;28;20047;-85
2021/03/10 09:26:40;;;;;;;17.88;13.90;;;;;;;;;;5095716;28;20069;-84
2021/03/10 09:29:10;;;;;;;19.60;14.55;;;;;;;;;;5092408;28;20108;-84
2021/03/10 09:31:37;;;;;;;18.40;14.60;;;;;;;;;;5086632;28;20371;-84
2021/03/10 09:34:05;;;;;;;19.73;14.02;;;;;;;;;;5088965;28;20069;-85
2021/03/10 09:36:32;;;;;;;19.60;13.52;;;;;;;;;;5085397;28;20044;-85
2021/03/10 09:38:59;;;;;;;21.08;16.38;;;;;;;;;;5104091;28;20091;-86
2021/03/10 09:41:26;;;;;;;20.80;15.95;;;;;;;;;;5099233;28;20112;-86
2021/03/10 09:44:08;;;;;;;19.73;15.98;;;;;;;;;;5083761;28;20359;-84
2021/03/10 09:46:39;;;;;;;23.05;16.52;;;;;;;;;;5086233;28;20023;-86
2021/03/10 09:49:05;;;;;;;24.48;16.85;;;;;;;;;;5086661;28;20105;-86
2021/03/10 09:51:32;;;;;;;19.20;16.27;;;;;;;;;;5079080;28;20024;-86
2021/03/10 09:53:59;;;;;;;21.23;16.25;;;;;;;;;;5081673;28;20036;-84
2021/03/10 09:56:26;;;;;;;22.50;16.90;;;;;;;;;;5082444;28;20059;-84
2021/03/10 09:58:59;;;;;;;24.55;18.05;;;;;;;;;;5081497;28;20430;-85
2021/03/10 10:01:26;;;;;;;24.05;17.67;;;;;;;;;;5096729;28;20032;-84
2021/03/10 10:03:53;;;;;;;22.38;16.92;;;;;;;;;;5095476;28;20028;-86
2021/03/10 10:06:20;;;;;;;27.70;19.30;;;;;;;;;;5083744;28;21514;-85
2021/03/10 10:08:47;;;;;;;24.27;17.42;;;;;;;;;;5091695;28;20032;-85
2021/03/10 10:11:13;;;;;;;28.23;20.17;;;;;;;;;;5085815;28;20028;-86
2021/03/10 10:13:43;;;;;;;24.10;17.17;;;;;;;;;;5077963;28;20443;-85
2021/03/10 10:16:09;;;;;;;27.95;19.10;;;;;;;;;;5088932;28;20035;-86
2021/03/10 10:18:36;;;;;;;32.45;21.92;;;;;;;;;;5093479;28;20027;-86
2021/03/10 10:21:03;;;;;;;29.67;21.08;;;;;;;;;;5079756;28;20085;-84
2021/03/10 10:23:29;;;;;;;31.67;21.17;;;;;;;;;;5096115;28;20086;-85
2021/03/10 10:25:55;;;;;;;31.05;22.23;;;;;;;;;;5105104;28;20034;-85
2021/03/10 10:28:22;;;;;;;38.22;22.85;;;;;;;;;;5090503;28;20347;-85
2021/03/10 10:30:48;;;;;;;29.38;21.92;;;;;;;;;;5105228;28;20316;-86
2021/03/10 10:33:14;;;;;;;26.70;21.23;;;;;;;;;;5081120;28;20054;-85
2021/03/10 10:35:40;;;;;;;31.33;21.17;;;;;;;;;;5073003;28;20130;-86
2021/03/10 10:38:09;;;;;;;31.63;23.77;;;;;;;;;;5096831;28;20357;-86
2021/03/10 10:40:36;;;;;;;31.88;22.65;;;;;;;;;;5084252;28;20035;-86
2021/03/10 10:43:02;;;;;;;32.83;23.55;;;;;;;;;;5082600;28;20034;-86
2021/03/10 10:45:28;;;;;;;30.55;23.13;;;;;;;;;;5098317;28;20035;-87
2021/03/10 10:47:54;;;;;;;28.90;21.40;;;;;;;;;;5080803;28;20023;-86
2021/03/10 10:50:20;;;;;;;33.35;22.73;;;;;;;;;;5098388;28;20257;-85
2021/03/10 10:52:48;;;;;;;30.48;23.58;;;;;;;;;;5079379;28;20402;-87
2021/03/10 10:55:17;;;;;;;29.70;23.15;;;;;;;;;;5076233;28;20035;-86
2021/03/10 10:57:43;;;;;;;;;;;;;;;;;;5073319;28;20134;-86
2021/03/10 11:00:10;;;;;;;29.67;21.70;;;;;;;;;;5098121;28;20342;-89
2021/03/10 11:02:36;;;;;;;27.00;20.95;;;;;;;;;;5088893;28;20104;-85
2021/03/10 11:05:03;;;;;;;30.60;22.23;;;;;;;;;;5097154;28;20024;-83
2021/03/10 11:07:29;;;;;;;32.83;23.65;;;;;;;;;;5073397;28;20028;-86
2021/03/10 11:09:55;;;;;;;29.58;22.52;;;;;;;;;;5077051;28;20412;-85
2021/03/10 11:12:21;;;;;;;30.17;21.67;;;;;;;;;;5091175;28;20024;-88
2021/03/10 11:14:47;;;;;;;32.67;23.67;;;;;;;;;;5072302;28;20545;-83
2021/03/10 11:17:13;;;;;;;26.30;20.67;;;;;;;;;;5071342;28;20024;-85
2021/03/10 11:19:40;;;;;;;30.70;22.70;;;;;;;;;;5091734;28;20040;-86
2021/03/10 11:22:09;;;;;;;31.88;21.80;;;;;;;;;;5079483;28;20028;-86
2021/03/10 11:24:35;;;;;;;26.20;21.55;;;;;;;;;;5077450;28;20130;-86
2021/03/10 11:27:02;;;;;;;29.65;21.85;;;;;;;;;;5079593;28;20028;-88
2021/03/10 11:29:28;;;;;;;26.58;21.27;;;;;;;;;;5076677;28;20078;-85
2021/03/10 11:31:55;;;;;;;28.95;19.88;;;;;;;;;;5093859;28;20033;-86
2021/03/10 11:34:22;;;;;;;28.73;20.67;;;;;;;;;;5080131;28;20023;-84
2021/03/10 11:36:49;;;;;;;30.15;21.70;;;;;;;;;;5075643;28;20043;-84
2021/03/10 11:39:15;;;;;;;27.10;21.13;;;;;;;;;;5089329;28;20022;-83
2021/03/10 11:41:42;;;;;;;28.02;20.85;;;;;;;;;;5074508;28;20039;-84
2021/03/10 11:44:08;;;;;;;29.20;21.58;;;;;;;;;;5080784;28;20028;-84
2021/03/10 11:46:34;;;;;;;30.13;21.30;;;;;;;;;;5078721;28;20119;-84
2021/03/10 11:49:01;;;;;;;30.13;20.83;;;;;;;;;;5072091;28;20191;-85
2021/03/10 11:51:27;;;;;;;27.38;18.33;;;;;;;;;;5076067;28;20028;-84
2021/03/10 11:53:53;;;;;;;28.70;20.90;;;;;;;;;;5092048;28;20047;-85
2021/03/10 11:56:20;;;;;;;24.52;18.80;;;;;;;;;;5090005;28;20031;-83
2021/03/10 11:58:46;;;;;;;23.52;18.67;;;;;;;;;;5077694;28;20029;-84
2021/03/10 12:01:12;;;;;;;20.08;16.42;;;;;;;;;;5084541;28;20046;-85
2021/03/10 12:03:38;;;;;;;22.30;17.25;;;;;;;;;;5085984;28;20032;-85
2021/03/10 12:06:05;;;;;;;19.45;15.55;;;;;;;;;;5083122;28;20020;-83
2021/03/10 12:08:34;;;;;;;25.02;16.45;;;;;;;;;;5099300;28;20127;-85
2021/03/10 12:11:00;;;;;;;22.20;15.93;;;;;;;;;;5084952;28;20020;-88
2021/03/10 12:13:26;;;;;;;19.73;14.98;;;;;;;;;;5075102;28;20431;-85
2021/03/10 12:15:55;;;;;;;20.48;14.68;;;;;;;;;;5076648;28;20438;-87
2021/03/10 12:18:21;;;;;;;22.33;16.48;;;;;;;;;;5075669;28;20213;-83
2021/03/10 12:20:48;;;;;;;19.52;13.82;;;;;;;;;;5094493;28;20020;-84
2021/03/10 12:23:15;;;;;;;18.52;14.93;;;;;;;;;;5093119;28;20020;-85
2021/03/10 12:25:41;;;;;;;19.02;14.60;;;;;;;;;;5076240;28;20020;-86
2021/03/10 12:28:07;;;;;;;19.88;13.65;;;;;;;;;;5082436;28;20149;-87
2021/03/10 12:30:34;;;;;;;18.02;13.85;;;;;;;;;;5076192;28;20074;-86
2021/03/10 12:33:00;;;;;;;18.83;13.40;;;;;;;;;;5076039;28;20499;-89
2021/03/10 12:35:28;;;;;;;18.50;12.90;;;;;;;;;;5080856;28;20123;-87
2021/03/10 12:37:54;;;;;;;20.15;12.90;;;;;;;;;;5086366;28;20043;-89
2021/03/10 12:40:20;;;;;;;13.77;11.18;;;;;;;;;;5098166;28;20024;-88
2021/03/10 12:42:47;;;;;;;13.18;11.05;;;;;;;;;;5093591;28;20396;-84
2021/03/10 12:45:13;;;;;;;14.55;11.23;;;;;;;;;;5095486;28;20024;-84
2021/03/10 12:47:44;;;;;;;16.50;11.85;;;;;;;;;;5076226;28;20032;-84
2021/03/10 12:50:11;;;;;;;15.15;11.02;;;;;;;;;;5081124;28;20077;-86
2021/03/10 12:52:38;;;;;;;13.77;10.65;;;;;;;;;;5092954;28;20032;-84
2021/03/10 12:55:05;;;;;;;13.60;10.65;;;;;;;;;;5075718;28;20153;-88
2021/03/10 12:57:31;;;;;;;14.75;11.32;;;;;;;;;;5083562;28;20039;-86
2021/03/10 12:59:58;;;;;;;14.20;10.80;;;;;;;;;;5094164;28;20023;-84
2021/03/10 13:02:26;;;;;;;16.35;10.75;;;;;;;;;;5092711;28;20016;-85
2021/03/10 13:04:52;;;;;;;14.30;11.00;;;;;;;;;;5079829;28;20020;-85
2021/03/10 13:07:18;;;;;;;13.80;10.98;;;;;;;;;;5078089;28;20035;-86
2021/03/10 13:09:45;;;;;;;17.58;11.55;;;;;;;;;;5106058;28;20366;-84
2021/03/10 13:12:11;;;;;;;16.60;12.65;;;;;;;;;;5090186;28;20024;-85
2021/03/10 13:14:37;;;;;;;14.27;10.70;;;;;;;;;;5082957;28;20119;-87
2021/03/10 13:17:03;;;;;;;15.55;12.07;;;;;;;;;;5084896;28;20181;-88
2021/03/10 13:19:29;;;;;;;17.17;11.45;;;;;;;;;;5088065;28;20035;-87
2021/03/10 13:21:55;;;;;;;12.55;10.50;;;;;;;;;;5089307;28;20031;-86
2021/03/10 13:24:25;;;;;;;17.00;11.38;;;;;;;;;;5083264;28;20039;-86
2021/03/10 13:26:51;;;;;;;12.55;9.60;;;;;;;;;;5099781;28;20027;-88
2021/03/10 13:29:17;;;;;;;13.30;10.40;;;;;;;;;;5099045;28;20113;-86
2021/03/10 13:31:44;;;;;;;16.08;10.32;;;;;;;;;;5087540;28;20032;-87
2021/03/10 13:34:10;;;;;;;18.38;11.27;;;;;;;;;;5104008;28;20410;-84
2021/03/10 13:36:36;;;;;;;13.82;10.75;;;;;;;;;;5087282;28;20147;-85
2021/03/10 13:39:05;;;;;;;14.48;10.30;;;;;;;;;;5080569;28;20028;-86
2021/03/10 13:41:32;;;;;;;16.58;10.15;;;;;;;;;;5084903;28;20338;-86
2021/03/10 13:43:58;;;;;;;12.80;9.75;;;;;;;;;;5097189;28;20028;-85
2021/03/10 13:46:24;;;;;;;14.75;9.80;;;;;;;;;;5081734;28;20024;-85
2021/03/10 13:48:50;;;;;;;17.38;10.90;;;;;;;;;;5087266;28;20280;-86
2021/03/10 13:51:16;;;;;;;13.80;10.25;;;;;;;;;;5081042;28;20024;-85
2021/03/10 13:53:42;;;;;;;16.42;10.73;;;;;;;;;;5095810;28;20020;-85
2021/03/10 13:56:09;;;;;;;14.07;10.27;;;;;;;;;;5081553;28;20036;-85
2021/03/10 13:58:35;;;;;;;15.30;10.20;;;;;;;;;;5079492;28;20040;-85
2021/03/10 14:01:01;;;;;;;15.25;11.05;;;;;;;;;;5095798;28;20517;-85
2021/03/10 14:03:27;;;;;;;15.45;11.38;;;;;;;;;;5083232;28;20030;-86
2021/03/10 14:05:53;;;;;;;17.98;11.07;;;;;;;;;;5097262;28;20020;-84
2021/03/10 14:08:19;;;;;;;17.10;12.25;;;;;;;;;;5097540;28;20077;-85
2021/03/10 14:10:45;;;;;;;22.15;16.35;;;;;;;;;;5095056;28;20050;-86
2021/03/10 14:13:12;;;;;;;20.95;17.23;;;;;;;;;;5092384;28;20115;-87
2021/03/10 14:15:38;;;;;;;25.80;13.70;;;;;;;;;;5098206;28;20047;-86
2021/03/10 14:18:04;;;;;;;21.35;14.15;;;;;;;;;;5081108;28;20028;-85
2021/03/10 14:20:31;;;;;;;17.75;13.75;;;;;;;;;;5098420;28;20031;-85
2021/03/10 14:23:38;;;;;;;18.60;12.43;;;;;;;;;;5081262;28;20395;-83